Time;durP1;ratioP1;P1;durP2;ratioP2;P2;SDS_P1;SDS_P2;PMS_P1;PMS_P2;Temp;Humidity;BMP_temperature;BMP_pressure;BME280_temperature;BME280_humidity;BME280_pressure;Samples;Min_cycle;Max_cycle;Signal;HPM_P1;HPM_P2
2021/08/06 00:00:20;;;;;;;13.05;5.72;;;640.20;2380.80;;;;;;5033866;28;20032;-80
2021/08/06 00:02:46;;;;;;;14.35;5.07;;;615.30;2380.80;;;;;;5034781;28;20179;-79
2021/08/06 00:05:12;;;;;;;11.32;5.05;;;615.30;2380.80;;;;;;5015682;28;20029;-75
2021/08/06 00:07:38;;;;;;;18.05;5.60;;;615.30;2355.20;;;;;;5016342;28;20026;-75
2021/08/06 00:10:05;;;;;;;13.88;5.35;;;640.00;2329.60;;;;;;5015881;28;20033;-76
2021/08/06 00:12:31;;;;;;;13.07;4.90;;;640.00;2329.60;;;;;;5033496;28;20024;-77
2021/08/06 00:14:57;;;;;;;11.38;5.45;;;640.10;2304.00;;;;;;5019958;28;20025;-76
2021/08/06 00:17:22;;;;;;;11.02;4.93;;;640.00;2304.00;;;;;;5019338;28;20025;-76
2021/08/06 00:19:48;;;;;;;13.02;5.22;;;640.10;2304.00;;;;;;5019929;28;20021;-77
2021/08/06 00:22:14;;;;;;;14.05;4.88;;;640.10;2304.00;;;;;;5037520;28;20021;-75
2021/08/06 00:24:40;;;;;;;11.63;4.93;;;615.30;2304.00;;;;;;5019655;28;20030;-76
2021/08/06 00:27:06;;;;;;;16.48;5.43;;;615.30;2304.00;;;;;;5019777;28;20117;-76
2021/08/06 00:29:31;;;;;;;12.13;5.13;;;615.30;2329.60;;;;;;5019716;28;20505;-77
2021/08/06 00:31:58;;;;;;;10.88;6.00;;;640.00;2355.20;;;;;;5019268;28;20032;-76
2021/08/06 00:34:23;;;;;;;19.52;5.90;;;615.30;2329.60;;;;;;5037423;28;20025;-76
2021/08/06 00:36:49;;;;;;;12.45;5.50;;;615.30;2304.00;;;;;;5019679;28;20021;-76
2021/08/06 00:39:15;;;;;;;13.63;5.00;;;615.20;2329.60;;;;;;5019419;28;20375;-77
2021/08/06 00:41:41;;;;;;;11.80;5.20;;;615.20;2355.20;;;;;;5019482;28;20029;-76
2021/08/06 00:44:07;;;;;;;7.75;4.68;;;615.30;2355.20;;;;;;5019387;28;20018;-77
2021/08/06 00:46:33;;;;;;;11.15;4.55;;;615.20;2380.80;;;;;;5019097;28;20036;-76
2021/08/06 00:48:59;;;;;;;10.20;5.20;;;615.30;2380.80;;;;;;5019193;28;20455;-75
2021/08/06 00:51:25;;;;;;;14.20;5.22;;;615.20;2406.40;;;;;;5019379;28;20028;-75
2021/08/06 00:53:51;;;;;;;14.75;5.40;;;615.20;2406.40;;;;;;5018790;28;20022;-73
2021/08/06 00:56:18;;;;;;;8.50;4.82;;;615.30;2406.40;;;;;;5019078;28;20017;-76
2021/08/06 00:58:44;;;;;;;10.20;5.38;;;615.30;2432.00;;;;;;5018695;28;20045;-75
2021/08/06 01:01:10;;;;;;;12.55;5.43;;;615.30;2432.00;;;;;;5018463;28;20026;-77
2021/08/06 01:04:07;;;;;;;11.82;4.97;;;615.30;2432.00;;;;;;5019374;28;20075;-78
2021/08/06 01:06:43;;;;;;;13.27;5.13;;;640.00;2432.00;;;;;;5020732;28;20045;-78
2021/08/06 01:09:21;;;;;;;11.70;4.40;;;615.20;2432.00;;;;;;5024274;28;20021;-78
2021/08/06 01:11:52;;;;;;;16.35;5.30;;;615.20;2432.00;;;;;;5036712;28;20524;-76
2021/08/06 01:14:23;;;;;;;9.43;4.40;;;615.20;2432.00;;;;;;5018553;28;20044;-78
2021/08/06 01:16:50;;;;;;;10.80;4.60;;;615.20;2432.00;;;;;;5018916;28;20044;-77
2021/08/06 01:19:37;;;;;;;7.75;4.03;;;615.20;2432.00;;;;;;5018744;28;20113;-77
2021/08/06 01:22:14;;;;;;;9.70;4.70;;;615.20;2432.00;;;;;;5018544;28;20366;-79
2021/08/06 01:24:42;;;;;;;9.68;4.35;;;615.20;2432.00;;;;;;5017835;28;20051;-76
2021/08/06 01:27:10;;;;;;;14.05;4.55;;;615.10;2432.00;;;;;;5018254;28;20450;-77
2021/08/06 01:29:36;;;;;;;8.85;4.53;;;615.10;2432.00;;;;;;5036325;28;20021;-76
2021/08/06 01:32:02;;;;;;;11.30;4.88;;;615.10;2432.00;;;;;;5018410;28;20048;-76
2021/08/06 01:34:28;;;;;;;13.38;4.68;;;615.10;2432.00;;;;;;5035814;28;20021;-77
2021/08/06 01:36:53;;;;;;;9.77;4.43;;;615.10;2432.00;;;;;;5018394;28;20476;-78
2021/08/06 01:39:20;;;;;;;9.60;4.68;;;615.20;2432.00;;;;;;5018057;28;20021;-76
2021/08/06 01:42:14;;;;;;;13.93;4.50;;;615.20;2432.00;;;;;;5035812;28;20048;-76
2021/08/06 01:44:44;;;;;;;10.48;4.28;;;615.00;2432.00;;;;;;5036150;28;20018;-77
2021/08/06 01:47:34;;;;;;;13.02;4.97;;;615.10;2432.00;;;;;;5018419;28;20048;-78
2021/08/06 01:50:07;;;;;;;7.50;3.75;;;615.10;2432.00;;;;;;5017822;28;20435;-77
2021/08/06 01:52:50;;;;;;;8.77;4.28;;;615.10;2432.00;;;;;;5018206;28;20405;-78
2021/08/06 01:55:17;;;;;;;10.00;4.22;;;615.00;2432.00;;;;;;5017810;28;20021;-77
2021/08/06 01:57:44;;;;;;;11.02;4.32;;;615.20;2432.00;;;;;;5017857;28;20490;-77
2021/08/06 02:00:10;;;;;;;8.60;4.50;;;615.10;2432.00;;;;;;5035387;28;20022;-78
2021/08/06 02:02:40;;;;;;;10.27;4.38;;;615.00;2432.00;;;;;;5017824;28;20064;-77
2021/08/06 02:05:09;;;;;;;7.53;4.78;;;615.00;2432.00;;;;;;5035735;28;20032;-78
2021/08/06 02:07:35;;;;;;;7.13;4.55;;;615.10;2432.00;;;;;;5017822;28;20398;-78
2021/08/06 02:10:02;;;;;;;6.88;4.10;;;614.90;2432.00;;;;;;5017426;28;20344;-78
2021/08/06 02:12:28;;;;;;;11.60;4.47;;;615.00;2432.00;;;;;;5017683;28;20021;-79
2021/08/06 02:14:54;;;;;;;8.88;4.75;;;614.80;2432.00;;;;;;5017549;28;20031;-77
2021/08/06 02:17:22;;;;;;;10.73;4.57;;;614.80;2432.00;;;;;;5017375;28;20103;-78
2021/08/06 02:19:50;;;;;;;13.40;4.70;;;614.90;2432.00;;;;;;5017455;28;20029;-76
2021/08/06 02:22:18;;;;;;;8.30;4.85;;;614.90;2432.00;;;;;;5017468;28;20026;-78
2021/08/06 02:24:45;;;;;;;7.45;4.00;;;614.90;2432.00;;;;;;5034976;28;20025;-78
2021/08/06 02:27:14;;;;;;;12.23;5.57;;;614.90;2432.00;;;;;;5017413;28;20470;-76
2021/08/06 02:29:42;;;;;;;10.88;4.18;;;614.80;2432.00;;;;;;5017115;28;20024;-78
2021/08/06 02:32:09;;;;;;;10.07;4.80;;;614.60;2432.00;;;;;;5017087;28;20018;-76
2021/08/06 02:34:35;;;;;;;9.48;5.15;;;589.70;2432.00;;;;;;5035012;28;20029;-77
2021/08/06 02:37:01;;;;;;;15.77;4.95;;;589.70;2432.00;;;;;;5016072;28;20052;-78
2021/08/06 02:39:29;;;;;;;12.63;5.43;;;589.60;2432.00;;;;;;5017074;28;20021;-77
2021/08/06 02:41:59;;;;;;;7.50;4.57;;;;;;;;;;5034612;28;20021;-77
2021/08/06 02:44:25;;;;;;;11.82;5.20;;;;;;;;;;5034466;28;20037;-77
2021/08/06 02:46:51;;;;;;;10.88;4.95;;;;;;;;;;5017159;28;20044;-78
2021/08/06 02:49:18;;;;;;;13.85;5.50;;;;;;;;;;5017114;28;20153;-77
2021/08/06 02:51:44;;;;;;;9.50;4.60;;;;;;;;;;5016800;28;20021;-77
2021/08/06 02:54:10;;;;;;;10.40;4.45;;;;;;;;;;5016852;28;20013;-76
2021/08/06 02:56:36;;;;;;;10.32;5.00;;;;;;;;;;5016718;28;20013;-76
2021/08/06 02:59:02;;;;;;;9.63;5.38;;;;;;;;;;5016681;28;20025;-77
2021/08/06 03:01:29;;;;;;;10.82;5.22;;;;;;;;;;5016930;28;20362;-77
2021/08/06 03:03:55;;;;;;;9.02;5.05;;;;;;;;;;5034579;28;20018;-76
2021/08/06 03:06:21;;;;;;;11.18;5.60;;;614.70;2432.00;;;;;;5016311;28;20443;-76
2021/08/06 03:08:46;;;;;;;8.65;4.57;;;614.60;2432.00;;;;;;5016617;28;20112;-76
2021/08/06 03:11:12;;;;;;;8.57;5.22;;;614.50;2432.00;;;;;;5016606;28;20112;-76
2021/08/06 03:13:38;;;;;;;9.30;4.28;;;614.50;2432.00;;;;;;5016308;28;20033;-76
2021/08/06 03:16:04;;;;;;;10.13;5.15;;;614.50;2432.00;;;;;;5034150;28;20033;-77
2021/08/06 03:18:30;;;;;;;8.38;4.88;;;614.50;2432.00;;;;;;5016539;28;20423;-76
2021/08/06 03:20:56;;;;;;;12.52;5.60;;;614.60;2432.00;;;;;;5016162;28;20052;-76
2021/08/06 03:23:22;;;;;;;9.00;4.93;;;614.60;2432.00;;;;;;5016410;28;20116;-76
2021/08/06 03:25:48;;;;;;;8.10;4.63;;;614.70;2432.00;;;;;;5016469;28;20466;-76
2021/08/06 03:28:14;;;;;;;8.38;4.35;;;614.70;2432.00;;;;;;5019084;28;20044;-76
2021/08/06 03:30:41;;;;;;;4.82;2.85;;;614.50;2432.00;;;;;;5019706;28;20025;-76
2021/08/06 03:33:06;;;;;;;7.95;4.07;;;614.50;2432.00;;;;;;5033852;28;20024;-76
2021/08/06 03:35:32;;;;;;;5.15;2.65;;;614.40;2432.00;;;;;;5016131;28;20021;-76
2021/08/06 03:37:58;;;;;;;5.03;2.28;;;614.40;2432.00;;;;;;5016114;28;20021;-77
2021/08/06 03:40:24;;;;;;;5.18;2.75;;;614.50;2432.00;;;;;;5015802;28;20032;-76
2021/08/06 03:42:50;;;;;;;4.68;2.55;;;614.50;2432.00;;;;;;5016235;28;20156;-77
2021/08/06 03:45:15;;;;;;;5.57;2.53;;;589.70;2432.00;;;;;;5034010;28;20037;-78
2021/08/06 03:47:41;;;;;;;5.35;2.90;;;589.70;2432.00;;;;;;5020658;28;20030;-76
2021/08/06 03:50:08;;;;;;;4.97;3.50;;;589.60;2432.00;;;;;;5024769;28;20040;-75
2021/08/06 03:52:34;;;;;;;5.68;3.40;;;589.60;2432.00;;;;;;5025241;28;20025;-76
2021/08/06 03:55:00;;;;;;;7.22;3.55;;;589.60;2432.00;;;;;;5022739;28;20060;-76
2021/08/06 03:57:26;;;;;;;5.55;3.75;;;589.60;2432.00;;;;;;5023612;28;20128;-76
2021/08/06 03:59:52;;;;;;;6.50;4.00;;;589.60;2432.00;;;;;;5017321;28;20438;-76
2021/08/06 04:02:17;;;;;;;6.30;4.03;;;589.50;2432.00;;;;;;5015569;28;20025;-76
2021/08/06 04:04:43;;;;;;;8.48;4.40;;;589.50;2432.00;;;;;;5015655;28;20033;-76
2021/08/06 04:07:09;;;;;;;7.50;4.85;;;589.60;2432.00;;;;;;5015772;28;20053;-76
2021/08/06 04:09:35;;;;;;;7.60;4.05;;;589.60;2432.00;;;;;;5033178;28;20098;-74
2021/08/06 04:12:00;;;;;;;5.53;4.10;;;589.60;2432.00;;;;;;5033505;28;20079;-74
2021/08/06 04:14:26;;;;;;;5.45;3.72;;;589.60;2432.00;;;;;;5033220;28;20052;-74
2021/08/06 04:16:52;;;;;;;7.55;3.60;;;589.60;2432.00;;;;;;5015521;28;20029;-76
2021/08/06 04:19:18;;;;;;;8.50;4.15;;;589.60;2432.00;;;;;;5015693;28;20041;-76
2021/08/06 04:21:43;;;;;;;5.10;3.95;;;589.70;2432.00;;;;;;5015712;28;20033;-75
2021/08/06 04:24:09;;;;;;;10.93;3.60;;;589.70;2432.00;;;;;;5015255;28;20021;-75
2021/08/06 04:26:35;;;;;;;5.78;3.70;;;589.70;2432.00;;;;;;5015639;28;20159;-75
2021/08/06 04:29:01;;;;;;;6.72;4.13;;;589.70;2432.00;;;;;;5032890;28;20455;-75
2021/08/06 04:31:27;;;;;;;9.10;4.47;;;589.60;2432.00;;;;;;5015665;28;20447;-76
2021/08/06 04:33:52;;;;;;;5.93;4.50;;;589.60;2432.00;;;;;;5015514;28;20370;-75
2021/08/06 04:36:18;;;;;;;5.78;4.03;;;589.50;2432.00;;;;;;5015151;28;20040;-76
2021/08/06 04:38:44;;;;;;;9.07;5.00;;;589.50;2432.00;;;;;;5015416;28;20040;-76
2021/08/06 04:41:10;;;;;;;7.22;4.80;;;589.30;2432.00;;;;;;5015471;28;20447;-75
2021/08/06 04:43:36;;;;;;;6.72;5.00;;;589.30;2432.00;;;;;;5015222;28;20021;-75
2021/08/06 04:46:02;;;;;;;5.40;4.45;;;;;;;;;;5015369;28;20032;-75
2021/08/06 04:48:28;;;;;;;8.55;4.80;;;;;;;;;;5015448;28;20029;-75
2021/08/06 04:50:54;;;;;;;7.18;4.60;;;;;;;;;;5015126;28;20021;-77
2021/08/06 04:53:21;;;;;;;8.23;4.97;;;;;;;;;;5015486;28;20474;-76
2021/08/06 04:55:47;;;;;;;9.25;5.97;;;;;;;;;;5015526;28;20041;-77
2021/08/06 04:58:13;;;;;;;15.20;6.10;;;;;;;;;;5032817;28;20116;-76
2021/08/06 05:00:39;;;;;;;11.23;5.63;;;;;;;;;;5016808;28;20094;-76
2021/08/06 05:03:05;;;;;;;8.40;5.30;;;;;;;;;;5019041;28;20014;-77
2021/08/06 05:05:31;;;;;;;6.82;5.20;;;;;;;;;;5018574;28;20044;-77
2021/08/06 05:07:58;;;;;;;8.60;4.78;;;;;;;;;;5018945;28;20018;-77
2021/08/06 05:10:24;;;;;;;8.57;5.35;;;;;;;;;;5018818;28;20018;-77
2021/08/06 05:12:51;;;;;;;7.60;5.15;;;;;;;;;;5018470;28;20455;-77
2021/08/06 05:15:17;;;;;;;7.00;4.65;;;;;;;;;;5018473;28;20185;-77
2021/08/06 05:17:43;;;;;;;7.70;5.03;;;;;;;;;;5018624;28;20522;-77
2021/08/06 05:20:10;;;;;;;8.10;4.82;;;;;;;;;;5036098;28;20013;-76
2021/08/06 05:22:36;;;;;;;6.63;4.88;;;;;;;;;;5036393;28;20024;-77
2021/08/06 05:25:02;;;;;;;5.82;4.43;;;;;;;;;;5018297;28;20040;-77
2021/08/06 05:27:28;;;;;;;9.95;4.90;;;;;;;;;;5036297;28;20021;-77
2021/08/06 05:29:54;;;;;;;7.22;4.07;;;;;;;;;;5036166;28;20079;-77
2021/08/06 05:32:20;;;;;;;6.18;4.63;;;;;;;;;;5018079;28;20777;-78
2021/08/06 05:34:47;;;;;;;7.85;4.60;;;;;;;;;;5036363;28;20028;-77
2021/08/06 05:37:13;;;;;;;10.32;4.72;;;;;;;;;;5021319;28;20517;-77
2021/08/06 05:39:39;;;;;;;5.90;4.20;;;;;;;;;;5040586;28;20037;-76
2021/08/06 05:42:05;;;;;;;7.82;3.90;;;;;;;;;;5023770;28;20079;-77
2021/08/06 05:44:31;;;;;;;6.03;4.00;;;;;;;;;;5042671;28;20037;-76
2021/08/06 05:46:57;;;;;;;8.18;4.30;;;;;;;;;;5042812;28;20025;-76
2021/08/06 05:49:23;;;;;;;6.63;4.15;;;;;;;;;;5043271;28;20021;-76
2021/08/06 05:51:49;;;;;;;6.35;3.90;;;;;;;;;;5027020;28;20017;-76
2021/08/06 05:54:15;;;;;;;7.78;4.15;;;;;;;;;;5021631;28;20013;-77
2021/08/06 05:56:41;;;;;;;5.90;3.55;;;;;;;;;;5017859;28;20022;-77
2021/08/06 05:59:07;;;;;;;5.53;3.17;;;614.60;2432.00;;;;;;5036056;28;20025;-77
2021/08/06 06:01:33;;;;;;;5.65;3.20;;;614.40;2432.00;;;;;;5035446;28;20026;-77
2021/08/06 06:03:59;;;;;;;4.35;2.70;;;614.40;2432.00;;;;;;5017890;28;20022;-78
2021/08/06 06:06:25;;;;;;;3.67;2.45;;;589.70;2432.00;;;;;;5017724;28;20049;-78
2021/08/06 06:08:51;;;;;;;3.65;2.60;;;589.70;2432.00;;;;;;5017475;28;20017;-77
2021/08/06 06:11:19;;;;;;;4.63;2.47;;;589.70;2432.00;;;;;;5035255;28;20017;-77
2021/08/06 06:13:45;;;;;;;5.25;2.30;;;589.70;2432.00;;;;;;5017680;28;20107;-77
2021/08/06 06:16:11;;;;;;;4.15;2.13;;;589.70;2432.00;;;;;;5017454;28;20517;-77
2021/08/06 06:18:36;;;;;;;3.55;1.98;;;614.40;2432.00;;;;;;5035084;28;20056;-77
2021/08/06 06:21:02;;;;;;;4.60;1.70;;;589.70;2432.00;;;;;;5017229;28;20025;-77
2021/08/06 06:23:28;;;;;;;4.40;1.63;;;614.40;2432.00;;;;;;5017200;28;20104;-77
2021/08/06 06:25:54;;;;;;;2.80;1.75;;;614.40;2432.00;;;;;;5017523;28;20080;-77
2021/08/06 06:28:21;;;;;;;3.72;1.60;;;614.40;2432.00;;;;;;5016997;28;20033;-78
2021/08/06 06:30:49;;;;;;;3.20;1.70;;;614.50;2432.00;;;;;;5035245;28;20040;-77
2021/08/06 06:33:15;;;;;;;3.50;1.60;;;614.50;2432.00;;;;;;5035356;28;20104;-77
2021/08/06 06:35:40;;;;;;;2.97;1.38;;;614.60;2432.00;;;;;;5034804;28;20101;-76
2021/08/06 06:38:06;;;;;;;2.63;1.40;;;614.60;2432.00;;;;;;5017298;28;20462;-76
2021/08/06 06:40:32;;;;;;;2.17;1.15;;;614.70;2432.00;;;;;;5034751;28;20021;-76
2021/08/06 06:42:58;;;;;;;3.47;1.50;;;614.80;2432.00;;;;;;5017050;28;20482;-77
2021/08/06 06:45:24;;;;;;;3.78;1.60;;;614.80;2432.00;;;;;;5016986;28;20123;-76
2021/08/06 06:47:52;;;;;;;2.67;1.30;;;614.70;2432.00;;;;;;5016974;28;20079;-77
2021/08/06 06:50:25;;;;;;;6.47;1.60;;;614.80;2432.00;;;;;;5016793;28;20091;-77
2021/08/06 06:52:51;;;;;;;3.88;1.20;;;614.80;2432.00;;;;;;5016988;28;20447;-77
2021/08/06 06:55:17;;;;;;;2.80;1.40;;;614.80;2432.00;;;;;;5034697;28;20021;-77
2021/08/06 06:57:49;;;;;;;3.88;1.50;;;614.90;2432.00;;;;;;5016368;28;20052;-77
2021/08/06 07:00:16;;;;;;;3.97;1.70;;;614.90;2432.00;;;;;;5034779;28;20025;-76
2021/08/06 07:02:41;;;;;;;6.57;1.85;;;615.00;2432.00;;;;;;5034849;28;20032;-77
2021/08/06 07:05:09;;;;;;;5.00;2.03;;;615.20;2432.00;;;;;;5016418;28;20026;-77
2021/08/06 07:07:35;;;;;;;3.20;1.42;;;;;;;;;;5016757;28;20116;-77
2021/08/06 07:10:01;;;;;;;2.60;1.60;;;;;;;;;;5016512;28;20021;-76
2021/08/06 07:12:27;;;;;;;3.00;1.85;;;640.10;2380.80;;;;;;5034536;28;20022;-77
2021/08/06 07:14:53;;;;;;;3.67;2.20;;;640.10;2380.80;;;;;;5016611;28;20027;-77
2021/08/06 07:17:18;;;;;;;6.90;2.08;;;640.20;2406.40;;;;;;5032827;28;20540;-77
2021/08/06 07:19:44;;;;;;;3.90;1.70;;;640.40;2355.20;;;;;;5016414;28;20390;-77
2021/08/06 07:22:10;;;;;;;2.95;1.50;;;640.30;2329.60;;;;;;5016285;28;20022;-77
2021/08/06 07:24:36;;;;;;;4.07;2.30;;;640.30;2329.60;;;;;;5015557;28;20079;-77
2021/08/06 07:27:02;;;;;;;4.10;2.17;;;640.40;2278.40;;;;;;5034447;28;20477;-78
2021/08/06 07:29:27;;;;;;;5.47;2.42;;;640.20;2304.00;;;;;;5033798;28;20477;-77
2021/08/06 07:31:53;;;;;;;3.70;1.90;;;640.50;2304.00;;;;;;5015990;28;20021;-77
2021/08/06 07:34:19;;;;;;;3.35;2.00;;;640.40;2304.00;;;;;;5034043;28;20049;-77
2021/08/06 07:36:45;;;;;;;8.90;2.42;;;640.60;2329.60;;;;;;5016121;28;20087;-77
2021/08/06 07:39:11;;;;;;;3.13;1.70;;;640.70;2380.80;;;;;;5015949;28;20117;-77
2021/08/06 07:41:37;;;;;;;3.15;1.80;;;665.70;2304.00;;;;;;5016159;28;20021;-76
2021/08/06 07:44:03;;;;;;;3.80;2.40;;;665.60;2304.00;;;;;;5016241;28;20120;-77
2021/08/06 07:46:29;;;;;;;5.85;2.75;;;665.70;2304.00;;;;;;5015420;28;20037;-77
2021/08/06 07:48:54;;;;;;;5.68;2.03;;;665.70;2278.40;;;;;;5015602;28;20043;-77
2021/08/06 07:51:21;;;;;;;3.50;1.80;;;665.80;2252.80;;;;;;5015671;28;20025;-75
2021/08/06 07:53:46;;;;;;;2.90;1.90;;;666.00;2252.80;;;;;;5015452;28;20025;-77
2021/08/06 07:56:14;;;;;;;2.90;1.70;;;666.10;2227.20;;;;;;5015955;28;20025;-78
2021/08/06 07:58:40;;;;;;;4.28;2.58;;;666.20;2201.60;;;;;;5033333;28;20038;-77
2021/08/06 08:01:06;;;;;;;5.75;2.55;;;666.20;2201.60;;;;;;5015732;28;20108;-77
2021/08/06 08:03:32;;;;;;;4.55;2.22;;;;;;;;;;5015904;28;20029;-76
2021/08/06 08:06:00;;;;;;;3.05;1.75;;;666.50;2176.00;;;;;;5015885;28;20108;-77
2021/08/06 08:08:26;;;;;;;2.67;1.63;;;666.50;2150.40;;;;;;5015494;28;20021;-79
2021/08/06 08:10:52;;;;;;;3.70;2.25;;;666.40;2150.40;;;;;;5015428;28;20362;-78
2021/08/06 08:13:17;;;;;;;4.55;2.15;;;691.20;2150.40;;;;;;5015090;28;20026;-77
2021/08/06 08:15:44;;;;;;;2.88;1.80;;;691.30;2099.20;;;;;;5032983;28;20032;-76
2021/08/06 08:18:10;;;;;;;4.63;1.90;;;691.30;2124.80;;;;;;5016155;28;20025;-76
2021/08/06 08:20:36;;;;;;;3.28;1.92;;;691.20;2048.00;;;;;;5033495;28;20026;-76
2021/08/06 08:23:02;;;;;;;3.47;2.30;;;691.30;2099.20;;;;;;5015848;28;20022;-78
2021/08/06 08:25:28;;;;;;;7.65;2.30;;;;;;;;;;5015101;28;20428;-77
2021/08/06 08:27:54;;;;;;;4.25;2.38;;;;;;;;;;5014916;28;20076;-78
2021/08/06 08:30:21;;;;;;;5.95;2.78;;;;;;;;;;5016217;28;20041;-77
2021/08/06 08:32:47;;;;;;;8.10;2.38;;;;;;;;;;5015273;28;20366;-77
2021/08/06 08:35:13;;;;;;;3.67;2.33;;;;;;;;;;5017479;28;20111;-77
2021/08/06 08:37:39;;;;;;;5.47;2.90;;;;;;;;;;5019259;28;20016;-78
2021/08/06 08:40:06;;;;;;;4.07;2.58;;;;;;;;;;5019747;28;20021;-77
2021/08/06 08:42:32;;;;;;;3.25;2.40;;;;;;;;;;5019361;28;20528;-78
2021/08/06 08:45:01;;;;;;;6.15;2.70;;;;;;;;;;5037373;28;20025;-78
2021/08/06 08:47:28;;;;;;;4.50;2.60;;;;;;;;;;5019298;28;20048;-78
2021/08/06 08:49:54;;;;;;;6.18;2.78;;;;;;;;;;5019131;28;20024;-78
2021/08/06 08:52:21;;;;;;;5.22;2.00;;;;;;;;;;5037117;28;20018;-77
2021/08/06 08:54:48;;;;;;;4.05;2.15;;;;;;;;;;5040898;28;20033;-78
2021/08/06 08:57:21;;;;;;;4.10;2.40;;;;;;;;;;5018323;28;20049;-79
2021/08/06 08:59:48;;;;;;;3.55;2.33;;;;;;;;;;5019158;28;20021;-78
2021/08/06 09:02:14;;;;;;;4.50;2.00;;;;;;;;;;5018928;28;20104;-78
2021/08/06 09:04:43;;;;;;;4.45;2.10;;;;;;;;;;5018863;28;20113;-77
2021/08/06 09:07:10;;;;;;;5.28;2.65;;;;;;;;;;5018950;28;20080;-78
2021/08/06 09:09:36;;;;;;;4.57;2.05;;;;;;;;;;5036501;28;20022;-76
2021/08/06 09:12:07;;;;;;;3.50;2.10;;;;;;;;;;5018868;28;20091;-77
2021/08/06 09:14:34;;;;;;;3.17;2.00;;;;;;;;;;5018857;28;20045;-77
2021/08/06 09:17:05;;;;;;;3.70;2.40;;;;;;;;;;5018526;28;20021;-75
2021/08/06 09:19:34;;;;;;;5.50;1.85;;;717.10;1996.80;;;;;;5018829;28;20055;-76
2021/08/06 09:22:21;;;;;;;5.70;3.40;;;717.10;2022.40;;;;;;5036432;28;20022;-75
2021/08/06 09:25:06;;;;;;;3.40;2.22;;;717.20;2048.00;;;;;;5018495;28;20025;-77
2021/08/06 09:27:33;;;;;;;3.88;2.65;;;;;;;;;;5018596;28;20087;-77
2021/08/06 09:30:00;;;;;;;3.75;1.75;;;;;;;;;;5018510;28;20386;-77
2021/08/06 09:32:27;;;;;;;6.05;2.33;;;;;;;;;;5036058;28;20462;-78
2021/08/06 09:34:53;;;;;;;3.42;1.70;;;717.70;1996.80;;;;;;5036582;28;20057;-77
2021/08/06 09:37:22;;;;;;;4.10;1.92;;;717.50;1996.80;;;;;;5018207;28;20056;-77
2021/08/06 09:39:52;;;;;;;4.70;2.10;;;742.50;1996.80;;;;;;5018483;28;20447;-75
2021/08/06 09:42:22;;;;;;;3.20;2.08;;;743.00;1945.60;;;;;;5018540;28;20028;-76
2021/08/06 09:45:01;;;;;;;4.95;1.90;;;743.30;1894.40;;;;;;5018160;28;20044;-77
2021/08/06 09:47:28;;;;;;;2.90;1.77;;;768.20;1920.00;;;;;;5017632;28;20028;-76
2021/08/06 09:49:56;;;;;;;2.70;1.30;;;768.30;1868.80;;;;;;5018372;28;20419;-77
2021/08/06 09:52:38;;;;;;;5.00;2.15;;;768.60;1792.00;;;;;;5017770;28;20025;-77
2021/08/06 09:55:06;;;;;;;10.00;3.05;;;768.60;1843.20;;;;;;5016880;28;20033;-75
2021/08/06 09:57:33;;;;;;;6.57;2.63;;;793.60;1843.20;;;;;;5017390;28;20048;-77
2021/08/06 10:00:00;;;;;;;3.97;1.60;;;793.80;1843.20;;;;;;5035750;28;20029;-78
2021/08/06 10:02:30;;;;;;;3.55;1.80;;;793.70;1792.00;;;;;;5017348;28;20017;-80
2021/08/06 10:05:05;;;;;;;4.22;2.00;;;768.90;1766.40;;;;;;5033769;28;20029;-77
2021/08/06 10:07:46;;;;;;;3.50;1.90;;;793.60;1817.60;;;;;;5017411;28;20021;-78
2021/08/06 10:10:22;;;;;;;3.38;1.80;;;768.40;1843.20;;;;;;5017719;28;20108;-78
2021/08/06 10:12:49;;;;;;;3.45;1.38;;;768.60;1792.00;;;;;;5035361;28;20085;-78
2021/08/06 10:15:16;;;;;;;3.55;1.40;;;768.70;1766.40;;;;;;5035259;28;20035;-79
2021/08/06 10:17:43;;;;;;;3.17;1.70;;;768.90;1740.80;;;;;;5035712;28;20029;-79
2021/08/06 10:20:11;;;;;;;3.47;1.63;;;793.70;1766.40;;;;;;5017451;28;20045;-80
2021/08/06 10:22:38;;;;;;;2.80;1.38;;;793.90;1792.00;;;;;;5017914;28;20071;-78
2021/08/06 10:25:07;;;;;;;4.03;2.03;;;794.20;1740.80;;;;;;5017751;28;20486;-77
2021/08/06 10:27:34;;;;;;;3.95;2.40;;;794.50;1740.80;;;;;;5017636;28;20025;-77
2021/08/06 10:30:20;;;;;;;4.25;1.50;;;819.40;1715.20;;;;;;5017197;28;20024;-79
2021/08/06 10:33:09;;;;;;;3.47;1.52;;;819.30;1689.60;;;;;;5017633;28;20033;-79
2021/08/06 10:35:46;;;;;;;2.60;1.10;;;819.60;1664.00;;;;;;5017506;28;20458;-79
2021/08/06 10:38:13;;;;;;;2.75;1.38;;;819.70;1664.00;;;;;;5017310;28;20108;-79
2021/08/06 10:40:39;;;;;;;1.75;0.90;;;819.50;1689.60;;;;;;5016713;28;20116;-79
2021/08/06 10:43:11;;;;;;;2.67;1.10;;;819.30;1689.60;;;;;;5017479;28;20434;-78
2021/08/06 10:45:51;;;;;;;2.15;1.10;;;819.20;1689.60;;;;;;5034552;28;20025;-78
2021/08/06 10:48:34;;;;;;;4.57;1.40;;;794.20;1715.20;;;;;;5016810;28;20033;-81
2021/08/06 10:51:18;;;;;;;2.95;1.20;;;819.30;1689.60;;;;;;5017082;28;20111;-78
2021/08/06 10:53:54;;;;;;;3.97;1.45;;;819.40;1689.60;;;;;;5017147;28;20022;-79
2021/08/06 10:56:24;;;;;;;3.17;1.30;;;819.80;1638.40;;;;;;5016685;28;20116;-80
2021/08/06 10:58:50;;;;;;;5.07;1.30;;;820.10;1638.40;;;;;;5015421;28;20096;-80
2021/08/06 11:01:29;;;;;;;2.33;1.30;;;845.00;1612.80;;;;;;5016509;28;20455;-78
2021/08/06 11:04:00;;;;;;;3.08;1.25;;;845.10;1612.80;;;;;;5034604;28;20021;-79
2021/08/06 11:06:36;;;;;;;2.97;1.42;;;845.20;1612.80;;;;;;5016806;28;20021;-79
2021/08/06 11:09:04;;;;;;;1.65;0.88;;;845.00;1587.20;;;;;;5016462;28;20120;-79
2021/08/06 11:11:56;;;;;;;3.15;1.10;;;845.20;1561.60;;;;;;5016700;28;20025;-78
2021/08/06 11:14:27;;;;;;;1.88;1.00;;;845.20;1561.60;;;;;;5029110;28;20036;-78
2021/08/06 11:17:06;;;;;;;3.20;1.00;;;819.60;1587.20;;;;;;5016371;28;20049;-79
2021/08/06 11:19:42;;;;;;;2.47;1.10;;;844.80;1587.20;;;;;;5034196;28;20025;-77
2021/08/06 11:22:17;;;;;;;3.35;1.10;;;819.90;1561.60;;;;;;5033595;28;20528;-77
2021/08/06 11:24:45;;;;;;;3.15;1.10;;;844.90;1587.20;;;;;;5016350;28;20026;-80
2021/08/06 11:27:13;;;;;;;3.10;1.35;;;845.10;1561.60;;;;;;5016527;28;20366;-80
2021/08/06 11:29:41;;;;;;;2.35;1.10;;;845.50;1561.60;;;;;;5016161;28;20025;-77
2021/08/06 11:32:10;;;;;;;1.85;1.02;;;845.60;1536.00;;;;;;5033798;28;20017;-79
2021/08/06 11:34:57;;;;;;;1.92;0.82;;;845.60;1536.00;;;;;;5016153;28;20017;-77
2021/08/06 11:37:26;;;;;;;2.33;1.10;;;845.60;1484.80;;;;;;5033888;28;20013;-79
2021/08/06 11:40:07;;;;;;;3.28;1.00;;;845.70;1510.40;;;;;;5016163;28;20057;-78
2021/08/06 11:42:34;;;;;;;3.78;1.20;;;870.40;1510.40;;;;;;5034027;28;20025;-78
2021/08/06 11:44:59;;;;;;;4.75;1.40;;;870.50;1510.40;;;;;;5015529;28;20075;-77
2021/08/06 11:47:35;;;;;;;2.88;1.85;;;870.60;1484.80;;;;;;5033527;28;20025;-77
2021/08/06 11:50:02;;;;;;;3.85;1.10;;;870.70;1484.80;;;;;;5015719;28;20374;-77
2021/08/06 11:52:43;;;;;;;3.90;1.33;;;870.80;1484.80;;;;;;5016020;28;20055;-77
2021/08/06 11:55:10;;;;;;;2.57;1.17;;;870.90;1459.20;;;;;;5015895;28;20022;-77
2021/08/06 11:58:02;;;;;;;5.07;0.95;;;870.90;1459.20;;;;;;5015483;28;20049;-77
2021/08/06 12:00:33;;;;;;;5.22;1.10;;;870.70;1484.80;;;;;;5011885;28;20087;-78
2021/08/06 12:03:18;;;;;;;3.35;1.48;;;870.80;1484.80;;;;;;5015918;28;20371;-78
2021/08/06 12:05:52;;;;;;;4.03;1.48;;;871.10;1484.80;;;;;;5015477;28;20030;-77
2021/08/06 12:08:25;;;;;;;3.92;1.27;;;871.20;1459.20;;;;;;5016272;28;20028;-80
2021/08/06 12:10:56;;;;;;;4.05;1.35;;;871.10;1459.20;;;;;;5022236;28;20025;-79
2021/08/06 12:13:24;;;;;;;2.00;1.02;;;871.10;1484.80;;;;;;5040259;28;20021;-80
2021/08/06 12:16:11;;;;;;;1.90;1.00;;;871.10;1459.20;;;;;;5022156;28;20075;-79
2021/08/06 12:18:51;;;;;;;2.42;1.10;;;870.70;1459.20;;;;;;5021735;28;20362;-78
2021/08/06 12:21:27;;;;;;;3.25;1.30;;;845.40;1484.80;;;;;;5022022;28;20095;-78
2021/08/06 12:24:09;;;;;;;2.53;1.17;;;870.40;1484.80;;;;;;5023094;28;20025;-79
2021/08/06 12:26:35;;;;;;;3.22;1.67;;;871.00;1459.20;;;;;;5022535;28;20033;-79
2021/08/06 12:29:30;;;;;;;1.73;0.95;;;871.20;1459.20;;;;;;5041253;28;20040;-77
2021/08/06 12:32:03;;;;;;;2.28;0.90;;;896.00;1433.60;;;;;;5022855;28;20021;-77
2021/08/06 12:34:31;;;;;;;4.68;1.25;;;871.20;1433.60;;;;;;5023575;28;20109;-79
2021/08/06 12:37:03;;;;;;;3.05;1.38;;;896.00;1433.60;;;;;;5022946;28;20017;-78
2021/08/06 12:39:32;;;;;;;2.97;1.35;;;896.20;1433.60;;;;;;5022649;28;20022;-78
2021/08/06 12:42:16;;;;;;;3.42;1.40;;;896.30;1433.60;;;;;;5022740;28;20029;-79
2021/08/06 12:44:58;;;;;;;2.63;1.20;;;896.70;1433.60;;;;;;5022592;28;20044;-79
2021/08/06 12:47:25;;;;;;;2.55;1.00;;;896.40;1433.60;;;;;;5039643;28;20100;-78
2021/08/06 12:50:07;;;;;;;3.53;1.35;;;896.40;1433.60;;;;;;5022038;28;20451;-78